National Weather Service Raw Text Product

Displaying AFOS PIL: TAFMCW Received: 2018-04-17 05:35 UTC


990 
FTUS43 KDMX 170535
TAFMCW
TAF
KMCW 170535Z 1706/1806 29008KT P6SM SKC
      TEMPO 1709/1713 5SM BR
     FM171300 35007KT P6SM SKC
     FM172000 06007KT P6SM SCT180
     FM180400 08009KT P6SM BKN060=